Time;durP1;ratioP1;P1;durP2;ratioP2;P2;SDS_P1;SDS_P2;PMS_P1;PMS_P2;Temp;Humidity;BMP_temperature;BMP_pressure;BME280_temperature;BME280_humidity;BME280_pressure;Samples;Min_cycle;Max_cycle;Signal;HPM_P1;HPM_P2
2022/03/16 00:00:29;;;;;;;26.00;19.33;;;8.00;99.90;;;;;;4964261;28;20232;-56
2022/03/16 00:02:56;;;;;;;27.10;19.53;;;8.00;99.90;;;;;;4967983;28;20215;-55
2022/03/16 00:05:23;;;;;;;27.27;19.23;;;8.00;99.90;;;;;;4968300;28;20300;-55
2022/03/16 00:07:50;;;;;;;28.77;19.80;;;8.00;99.90;;;;;;4965395;28;20639;-56
2022/03/16 00:10:17;;;;;;;28.43;20.37;;;7.90;99.90;;;;;;4968415;28;20227;-58
2022/03/16 00:12:43;;;;;;;31.50;19.40;;;7.80;99.90;;;;;;4973281;28;20897;-57
2022/03/16 00:15:11;;;;;;;28.43;19.60;;;7.90;99.90;;;;;;4970747;28;20234;-56
2022/03/16 00:17:38;;;;;;;31.73;20.47;;;7.80;99.90;;;;;;4972758;28;20274;-56
2022/03/16 00:20:06;;;;;;;27.50;18.93;;;7.80;99.90;;;;;;4967814;28;20208;-55
2022/03/16 00:22:32;;;;;;;27.77;19.63;;;7.70;99.90;;;;;;4972254;28;20227;-56
2022/03/16 00:25:01;;;;;;;27.77;20.03;;;7.70;99.90;;;;;;4968247;28;20724;-54
2022/03/16 00:27:28;;;;;;;27.67;19.47;;;7.70;99.90;;;;;;4974238;28;20205;-57
2022/03/16 00:29:55;;;;;;;27.60;19.00;;;7.60;99.90;;;;;;4969173;28;20306;-56
2022/03/16 00:32:22;;;;;;;28.97;19.53;;;7.50;99.90;;;;;;4975531;28;20298;-56
2022/03/16 00:34:48;;;;;;;29.00;20.27;;;7.40;99.90;;;;;;4973630;28;20327;-56
2022/03/16 00:37:15;;;;;;;26.17;18.67;;;7.30;99.90;;;;;;4977408;28;20685;-58
2022/03/16 00:39:42;;;;;;;27.27;19.10;;;7.30;99.90;;;;;;4974649;28;20666;-56
2022/03/16 00:42:09;;;;;;;30.53;20.43;;;7.30;99.90;;;;;;4973297;28;20270;-56
2022/03/16 00:44:36;;;;;;;28.50;19.47;;;7.20;99.90;;;;;;4969520;28;20227;-56
2022/03/16 00:47:04;;;;;;;31.10;19.50;;;7.20;99.90;;;;;;4969819;28;20308;-58
2022/03/16 00:49:31;;;;;;;28.70;18.67;;;7.20;99.90;;;;;;4968854;28;20706;-56
2022/03/16 00:51:59;;;;;;;26.57;18.23;;;7.20;99.90;;;;;;4972411;28;20410;-56
2022/03/16 00:54:26;;;;;;;30.30;19.70;;;7.20;99.90;;;;;;4973211;28;20296;-58
2022/03/16 00:56:54;;;;;;;29.30;19.23;;;7.10;99.90;;;;;;4973660;28;20242;-56
2022/03/16 00:59:21;;;;;;;30.93;19.50;;;7.10;99.90;;;;;;4974383;28;20432;-56
2022/03/16 01:01:48;;;;;;;31.23;18.70;;;7.10;99.90;;;;;;4972816;28;20695;-56
2022/03/16 01:04:15;;;;;;;26.97;18.40;;;7.10;99.90;;;;;;4970847;28;20214;-56
2022/03/16 01:06:41;;;;;;;34.37;19.07;;;7.00;99.90;;;;;;4970590;28;20264;-58
2022/03/16 01:09:08;;;;;;;29.23;18.97;;;7.10;99.90;;;;;;4975332;28;20754;-56
2022/03/16 01:11:36;;;;;;;28.07;19.00;;;7.10;99.90;;;;;;4969250;28;20580;-56
2022/03/16 01:14:03;;;;;;;29.77;18.80;;;7.20;99.90;;;;;;4975499;28;20302;-56
2022/03/16 01:16:32;;;;;;;28.00;17.93;;;7.10;99.90;;;;;;4974228;28;20552;-56
2022/03/16 01:18:59;;;;;;;26.73;18.57;;;7.10;99.90;;;;;;4969779;28;21469;-58
2022/03/16 01:21:26;;;;;;;26.90;18.13;;;6.90;99.90;;;;;;4971725;28;20307;-56
2022/03/16 01:23:53;;;;;;;29.97;18.67;;;7.00;99.90;;;;;;4975792;28;20368;-58
2022/03/16 01:26:19;;;;;;;27.50;18.57;;;7.00;99.90;;;;;;4972925;28;20211;-56
2022/03/16 01:28:46;;;;;;;23.03;16.27;;;6.90;99.90;;;;;;4974220;28;20230;-56
2022/03/16 01:31:13;;;;;;;29.07;18.97;;;6.90;99.90;;;;;;4972821;28;20287;-56
2022/03/16 01:33:40;;;;;;;27.57;18.87;;;6.90;99.90;;;;;;4972353;28;20209;-55
2022/03/16 01:36:07;;;;;;;28.80;18.83;;;6.80;99.90;;;;;;4972627;28;20307;-58
2022/03/16 01:38:34;;;;;;;27.20;18.63;;;6.80;99.90;;;;;;4970441;28;20323;-56
2022/03/16 01:41:00;;;;;;;27.70;20.20;;;6.90;99.90;;;;;;4977724;28;20565;-56
2022/03/16 01:43:27;;;;;;;26.43;18.80;;;6.90;99.90;;;;;;4978635;28;20375;-56
2022/03/16 01:45:54;;;;;;;28.13;19.00;;;6.80;99.90;;;;;;4977790;28;20301;-56
2022/03/16 01:48:21;;;;;;;30.17;20.43;;;6.60;99.90;;;;;;4973052;28;20215;-56
2022/03/16 01:50:49;;;;;;;30.83;19.83;;;6.50;99.90;;;;;;4967566;28;20372;-56
2022/03/16 01:53:16;;;;;;;32.13;19.87;;;6.50;99.90;;;;;;4972868;28;20212;-55
2022/03/16 01:55:44;;;;;;;27.17;19.23;;;6.40;99.90;;;;;;4974804;28;20309;-56
2022/03/16 01:58:11;;;;;;;31.77;20.13;;;6.50;99.90;;;;;;4974557;28;20326;-57
2022/03/16 02:00:41;;;;;;;28.40;18.63;;;6.30;99.90;;;;;;4974383;28;21652;-56
2022/03/16 02:03:08;;;;;;;29.47;19.27;;;6.30;99.90;;;;;;4973601;28;20378;-56
2022/03/16 02:05:36;;;;;;;28.90;19.43;;;6.20;99.90;;;;;;4972836;28;20703;-56
2022/03/16 02:08:05;;;;;;;32.03;20.43;;;6.20;99.90;;;;;;4975247;28;20212;-55
2022/03/16 02:10:32;;;;;;;27.83;18.23;;;6.10;99.90;;;;;;4972414;28;20214;-57
2022/03/16 02:13:00;;;;;;;31.93;19.47;;;6.10;99.90;;;;;;4976629;28;20601;-57
2022/03/16 02:15:27;;;;;;;29.27;20.03;;;6.10;99.90;;;;;;4977951;28;20229;-57
2022/03/16 02:17:55;;;;;;;27.70;19.27;;;6.00;99.90;;;;;;4976404;28;20223;-56
2022/03/16 02:20:24;;;;;;;29.53;18.90;;;6.00;99.90;;;;;;4974180;28;20293;-58
2022/03/16 02:22:54;;;;;;;29.70;19.03;;;5.90;99.90;;;;;;4980251;28;20288;-56
2022/03/16 02:25:22;;;;;;;28.53;19.43;;;6.00;99.90;;;;;;4977514;28;20268;-56
2022/03/16 02:27:52;;;;;;;25.87;18.10;;;5.90;99.90;;;;;;4979086;28;20245;-55
2022/03/16 02:30:23;;;;;;;30.37;18.67;;;5.80;99.90;;;;;;4978591;28;20213;-55
2022/03/16 02:32:50;;;;;;;25.93;17.73;;;5.80;99.90;;;;;;4977482;28;20728;-56
2022/03/16 02:35:17;;;;;;;23.83;17.73;;;5.80;99.90;;;;;;4977542;28;20730;-56
2022/03/16 02:37:44;;;;;;;26.93;18.57;;;5.80;99.90;;;;;;4979384;28;20248;-58
2022/03/16 02:40:17;;;;;;;25.33;17.17;;;5.80;99.90;;;;;;4976756;28;20200;-56
2022/03/16 02:42:44;;;;;;;28.40;17.30;;;5.80;99.90;;;;;;4976804;28;20769;-57
2022/03/16 02:45:10;;;;;;;26.83;17.87;;;5.70;99.90;;;;;;4979558;28;20264;-55
2022/03/16 02:47:39;;;;;;;28.27;18.90;;;5.80;99.90;;;;;;4974799;28;20357;-57
2022/03/16 02:50:07;;;;;;;26.67;17.90;;;5.80;99.90;;;;;;4973372;28;20274;-56
2022/03/16 02:52:34;;;;;;;27.77;18.07;;;5.80;99.90;;;;;;4972874;28;20228;-57
2022/03/16 02:55:01;;;;;;;27.90;18.40;;;5.80;99.90;;;;;;4970822;28;20298;-55
2022/03/16 02:57:28;;;;;;;28.07;18.77;;;5.70;99.90;;;;;;4973065;28;20225;-58
2022/03/16 02:59:55;;;;;;;26.57;17.77;;;5.70;99.90;;;;;;4973096;28;20652;-57
2022/03/16 03:02:22;;;;;;;26.17;17.47;;;5.60;99.90;;;;;;4973495;28;20210;-57
2022/03/16 03:04:49;;;;;;;24.93;18.33;;;5.60;99.90;;;;;;4974343;28;20590;-56
2022/03/16 03:07:16;;;;;;;25.97;17.63;;;5.60;99.90;;;;;;4973107;28;20234;-55
2022/03/16 03:09:44;;;;;;;26.33;18.10;;;5.60;99.90;;;;;;4973355;28;20300;-56
2022/03/16 03:12:11;;;;;;;24.50;16.77;;;5.50;99.90;;;;;;4975552;28;20614;-58
2022/03/16 03:14:37;;;;;;;27.70;18.27;;;5.50;99.90;;;;;;4973492;28;20698;-57
2022/03/16 03:17:04;;;;;;;27.83;18.33;;;5.50;99.90;;;;;;4973453;28;20202;-56
2022/03/16 03:19:32;;;;;;;25.77;17.47;;;5.40;99.90;;;;;;4972122;28;20210;-56
2022/03/16 03:21:58;;;;;;;24.43;16.63;;;5.60;99.90;;;;;;4971646;28;20218;-55
2022/03/16 03:24:25;;;;;;;27.50;18.00;;;5.60;99.90;;;;;;4968443;28;20311;-56
2022/03/16 03:26:53;;;;;;;25.97;18.03;;;5.50;99.90;;;;;;4969389;28;20322;-56
2022/03/16 03:29:20;;;;;;;25.87;18.67;;;5.40;99.90;;;;;;4968983;28;20207;-57
2022/03/16 03:31:46;;;;;;;25.93;18.27;;;5.40;99.90;;;;;;4969876;28;20236;-56
2022/03/16 03:34:13;;;;;;;24.60;18.93;;;5.40;99.90;;;;;;4970041;28;20649;-56
2022/03/16 03:36:41;;;;;;;26.23;18.83;;;5.40;99.90;;;;;;4970341;28;20246;-56
2022/03/16 03:39:07;;;;;;;25.60;17.10;;;5.40;99.90;;;;;;4967708;28;20341;-58
2022/03/16 03:41:34;;;;;;;26.57;18.73;;;5.30;99.90;;;;;;4967802;28;20226;-57
2022/03/16 03:44:01;;;;;;;24.70;18.00;;;5.30;99.90;;;;;;4966098;28;20194;-57
2022/03/16 03:46:28;;;;;;;27.77;18.27;;;5.20;99.90;;;;;;4969100;28;20313;-56
2022/03/16 03:48:55;;;;;;;25.17;18.37;;;5.20;99.90;;;;;;4969035;28;20641;-57
2022/03/16 03:51:22;;;;;;;27.40;19.37;;;5.20;99.90;;;;;;4971787;28;20205;-57
2022/03/16 03:53:49;;;;;;;23.60;17.37;;;5.20;99.90;;;;;;4970193;28;20277;-56
2022/03/16 03:56:16;;;;;;;25.07;17.67;;;5.20;99.90;;;;;;4971049;28;20206;-58
2022/03/16 03:58:42;;;;;;;26.93;19.13;;;5.10;99.90;;;;;;4966731;28;20218;-56
2022/03/16 04:01:09;;;;;;;24.87;17.60;;;5.10;99.90;;;;;;4967470;28;20596;-56
2022/03/16 04:03:36;;;;;;;27.27;17.67;;;5.10;99.90;;;;;;4969971;28;21460;-57
2022/03/16 04:06:03;;;;;;;26.40;17.33;;;5.10;99.90;;;;;;4969353;28;20266;-57
2022/03/16 04:08:30;;;;;;;28.13;19.07;;;5.10;99.90;;;;;;4967611;28;20199;-57
2022/03/16 04:10:57;;;;;;;23.63;17.27;;;5.10;99.90;;;;;;4967700;28;20293;-56
2022/03/16 04:13:24;;;;;;;24.73;17.63;;;5.10;99.90;;;;;;4969871;28;20341;-56
2022/03/16 04:15:50;;;;;;;27.83;18.50;;;5.10;99.90;;;;;;4966962;28;20217;-57
2022/03/16 04:18:25;;;;;;;28.07;17.97;;;5.10;99.90;;;;;;4972159;28;20231;-57
2022/03/16 04:20:53;;;;;;;26.30;17.87;;;5.10;99.90;;;;;;4982730;28;20631;-56
2022/03/16 04:23:20;;;;;;;26.00;17.20;;;5.10;99.90;;;;;;4972020;28;20272;-56
2022/03/16 04:25:46;;;;;;;22.80;17.93;;;5.10;99.90;;;;;;4972466;28;22349;-58
2022/03/16 04:28:13;;;;;;;25.80;17.43;;;5.10;99.90;;;;;;4974935;28;20272;-57
2022/03/16 04:30:40;;;;;;;26.87;18.30;;;5.00;99.90;;;;;;4970519;28;20297;-56
2022/03/16 04:33:07;;;;;;;25.47;18.40;;;5.00;99.90;;;;;;4970556;28;20218;-56
2022/03/16 04:35:34;;;;;;;26.87;18.90;;;5.00;99.90;;;;;;4968629;28;20714;-58
2022/03/16 04:38:00;;;;;;;27.20;18.30;;;4.90;99.90;;;;;;4972150;28;20736;-57
2022/03/16 04:40:27;;;;;;;22.60;17.27;;;4.90;99.90;;;;;;4968030;28;20224;-57
2022/03/16 04:42:54;;;;;;;26.90;18.97;;;5.00;99.90;;;;;;4968645;28;20650;-56
2022/03/16 04:45:21;;;;;;;25.83;18.30;;;5.00;99.90;;;;;;4970896;28;20217;-57
2022/03/16 04:47:47;;;;;;;28.73;18.93;;;4.90;99.90;;;;;;4972692;28;20299;-57
2022/03/16 04:50:14;;;;;;;25.33;18.07;;;4.90;99.90;;;;;;4966363;28;20350;-56
2022/03/16 04:52:46;;;;;;;26.03;19.10;;;4.90;99.90;;;;;;4970456;28;20210;-56
2022/03/16 04:55:13;;;;;;;24.47;18.40;;;4.90;99.90;;;;;;4969411;28;20207;-56
2022/03/16 04:57:41;;;;;;;25.80;19.70;;;5.00;99.90;;;;;;4971540;28;20703;-56
2022/03/16 05:00:09;;;;;;;27.30;19.60;;;4.80;99.90;;;;;;4970360;28;21238;-58
2022/03/16 05:02:36;;;;;;;27.07;18.93;;;4.80;99.90;;;;;;4971835;28;20210;-57
2022/03/16 05:05:04;;;;;;;28.00;18.63;;;4.80;99.90;;;;;;4970350;28;20542;-56
2022/03/16 05:07:31;;;;;;;28.90;19.87;;;4.80;99.90;;;;;;4972709;28;20734;-56
2022/03/16 05:09:58;;;;;;;28.97;20.27;;;4.80;99.90;;;;;;4972427;28;20202;-58
2022/03/16 05:12:24;;;;;;;28.43;19.57;;;4.80;99.90;;;;;;4969530;28;20304;-56
2022/03/16 05:14:51;;;;;;;25.63;18.93;;;4.80;99.90;;;;;;4971543;28;20281;-58
2022/03/16 05:17:18;;;;;;;34.40;21.40;;;4.80;99.90;;;;;;4970750;28;20205;-56
2022/03/16 05:19:48;;;;;;;25.83;19.10;;;4.80;99.90;;;;;;4965081;28;20210;-56
2022/03/16 05:22:15;;;;;;;29.77;20.57;;;4.80;99.90;;;;;;4970005;28;20555;-56
2022/03/16 05:24:42;;;;;;;30.23;19.17;;;4.80;99.90;;;;;;4974087;28;20281;-57
2022/03/16 05:27:09;;;;;;;31.07;19.77;;;4.90;99.90;;;;;;4970616;28;20210;-59
2022/03/16 05:29:36;;;;;;;31.00;21.27;;;4.80;99.90;;;;;;4969274;28;20208;-56
2022/03/16 05:32:03;;;;;;;31.43;20.53;;;4.90;99.90;;;;;;4968410;28;20302;-58
2022/03/16 05:34:30;;;;;;;33.43;19.93;;;4.90;99.90;;;;;;4977322;28;20969;-56
2022/03/16 05:36:58;;;;;;;27.87;19.13;;;4.90;99.90;;;;;;4973290;28;20210;-55
2022/03/16 05:39:25;;;;;;;30.17;19.70;;;4.80;99.90;;;;;;4970655;28;21021;-56
2022/03/16 05:41:52;;;;;;;28.80;20.10;;;4.90;99.90;;;;;;4972628;28;20726;-55
2022/03/16 05:44:19;;;;;;;30.07;21.60;;;4.90;99.90;;;;;;4972120;28;20201;-57
2022/03/16 05:46:45;;;;;;;30.13;19.33;;;4.90;99.90;;;;;;4972156;28;20241;-57
2022/03/16 05:49:12;;;;;;;27.50;19.37;;;4.90;99.90;;;;;;4971301;28;20244;-56
2022/03/16 05:51:39;;;;;;;26.67;18.40;;;4.90;99.90;;;;;;4972730;28;20699;-58
2022/03/16 05:54:06;;;;;;;25.80;17.93;;;4.90;99.90;;;;;;4972889;28;20300;-57
2022/03/16 05:56:34;;;;;;;31.13;21.07;;;4.90;99.90;;;;;;4975100;28;20657;-56
2022/03/16 05:59:00;;;;;;;22.60;17.57;;;4.90;99.90;;;;;;4975442;28;20241;-58
2022/03/16 06:01:27;;;;;;;26.57;18.27;;;5.00;99.90;;;;;;4971846;28;20293;-57
2022/03/16 06:03:54;;;;;;;25.90;17.73;;;5.00;99.90;;;;;;4970406;28;20209;-56
2022/03/16 06:06:21;;;;;;;25.27;17.53;;;5.00;99.90;;;;;;4972503;28;20228;-57
2022/03/16 06:08:48;;;;;;;25.77;16.87;;;5.00;99.90;;;;;;4974262;28;20257;-56
2022/03/16 06:11:15;;;;;;;26.23;17.33;;;5.00;99.90;;;;;;4974354;28;20737;-56
2022/03/16 06:13:41;;;;;;;24.10;17.20;;;5.00;99.90;;;;;;4979646;28;20296;-57
2022/03/16 06:16:08;;;;;;;23.87;15.73;;;5.00;99.90;;;;;;4976985;28;20202;-58
2022/03/16 06:18:35;;;;;;;22.83;16.10;;;5.10;99.90;;;;;;4977869;28;20217;-57
2022/03/16 06:21:02;;;;;;;21.90;14.60;;;5.20;99.90;;;;;;4973534;28;20256;-57
2022/03/16 06:23:29;;;;;;;20.73;14.47;;;5.30;99.90;;;;;;4979049;28;20626;-57
2022/03/16 06:25:56;;;;;;;18.83;13.47;;;5.40;99.90;;;;;;4991977;28;20213;-56
2022/03/16 06:28:23;;;;;;;19.20;14.53;;;5.40;99.90;;;;;;4979684;28;20666;-56
2022/03/16 06:30:49;;;;;;;21.30;14.10;;;5.40;99.90;;;;;;4975002;28;20211;-56
2022/03/16 06:33:17;;;;;;;22.13;14.30;;;5.50;99.90;;;;;;4977548;28;20226;-56
2022/03/16 06:35:44;;;;;;;21.80;13.10;;;5.50;99.90;;;;;;4975859;28;20317;-59
2022/03/16 06:38:11;;;;;;;18.97;13.70;;;5.60;99.90;;;;;;4977794;28;20223;-57
2022/03/16 06:40:39;;;;;;;19.80;12.63;;;5.60;99.90;;;;;;4975440;28;20210;-57
2022/03/16 06:43:06;;;;;;;22.03;14.10;;;5.70;99.90;;;;;;4978684;28;20233;-58
2022/03/16 06:45:33;;;;;;;17.03;12.50;;;5.70;99.90;;;;;;4976411;28;20246;-56
2022/03/16 06:48:01;;;;;;;19.10;12.70;;;5.70;99.90;;;;;;4974068;28;20304;-56
2022/03/16 06:50:28;;;;;;;20.33;12.37;;;5.80;99.90;;;;;;4968104;28;20319;-56
2022/03/16 06:52:56;;;;;;;18.27;11.60;;;5.80;99.90;;;;;;4984506;28;20237;-56
2022/03/16 06:55:24;;;;;;;15.37;10.83;;;5.90;99.90;;;;;;4997947;28;20310;-55
2022/03/16 06:57:51;;;;;;;16.50;11.83;;;6.00;99.90;;;;;;4983438;28;20319;-58
2022/03/16 07:00:17;;;;;;;16.60;11.10;;;6.10;99.90;;;;;;4963211;28;20276;-59
2022/03/16 07:03:05;;;;;;;17.40;11.13;;;6.30;99.90;;;;;;4967855;28;20539;-56
2022/03/16 07:05:38;;;;;;;17.37;11.27;;;6.40;99.90;;;;;;4967071;28;20199;-58
2022/03/16 07:08:07;;;;;;;13.77;9.97;;;6.50;99.90;;;;;;4970670;28;20325;-57
2022/03/16 07:10:35;;;;;;;15.33;10.90;;;6.60;99.90;;;;;;4968724;28;20294;-56
2022/03/16 07:13:10;;;;;;;14.43;10.57;;;6.60;99.90;;;;;;4969928;28;20247;-56
2022/03/16 07:15:42;;;;;;;13.67;10.20;;;6.70;99.90;;;;;;4966314;28;20288;-57
2022/03/16 07:18:10;;;;;;;13.93;9.50;;;6.80;99.90;;;;;;4967846;28;20205;-55
2022/03/16 07:20:37;;;;;;;17.17;9.80;;;6.90;99.90;;;;;;4965839;28;20198;-58
2022/03/16 07:23:05;;;;;;;13.30;9.70;;;7.10;99.90;;;;;;4968835;28;20230;-55
2022/03/16 07:25:36;;;;;;;13.60;9.50;;;7.30;99.90;;;;;;4967566;28;20209;-55
2022/03/16 07:28:03;;;;;;;13.70;9.27;;;7.50;99.90;;;;;;4966659;28;20205;-56
2022/03/16 07:30:30;;;;;;;11.47;8.80;;;7.60;99.90;;;;;;4967363;28;20300;-57
2022/03/16 07:32:56;;;;;;;12.57;9.23;;;7.70;99.90;;;;;;4966749;28;20800;-56
2022/03/16 07:35:26;;;;;;;12.10;8.63;;;7.80;99.90;;;;;;4965449;28;20215;-56
2022/03/16 07:37:57;;;;;;;11.13;8.27;;;8.00;99.90;;;;;;4969658;28;20201;-56
2022/03/16 07:40:25;;;;;;;10.60;8.20;;;8.00;99.90;;;;;;4968890;28;20598;-55
2022/03/16 07:42:52;;;;;;;11.40;7.97;;;8.10;99.90;;;;;;4966292;28;20251;-55
2022/03/16 07:45:20;;;;;;;9.40;7.57;;;8.10;97.30;;;;;;4964284;28;20648;-55
2022/03/16 07:47:48;;;;;;;10.67;8.10;;;8.20;99.90;;;;;;4973629;28;20283;-58
2022/03/16 07:50:16;;;;;;;13.70;8.20;;;8.30;43.50;;;;;;4966073;28;20245;-56
2022/03/16 07:52:44;;;;;;;9.37;7.20;;;8.30;42.90;;;;;;4962161;28;20297;-55
2022/03/16 07:55:12;;;;;;;9.97;7.63;;;8.40;41.60;;;;;;4966601;28;20336;-55
2022/03/16 07:57:38;;;;;;;10.77;8.07;;;8.50;53.80;;;;;;4961569;28;20744;-58
2022/03/16 08:00:10;;;;;;;9.70;7.57;;;8.60;1.00;;;;;;4972150;28;20264;-56
2022/03/16 08:02:38;;;;;;;9.87;7.67;;;8.60;1.00;;;;;;4972558;28;20220;-57
2022/03/16 08:05:06;;;;;;;10.77;7.20;;;8.70;1.00;;;;;;4968665;28;21915;-56
2022/03/16 08:07:33;;;;;;;11.90;7.43;;;8.60;1.00;;;;;;4963502;28;20229;-57
2022/03/16 08:10:00;;;;;;;12.00;8.50;;;8.60;1.00;;;;;;4974795;28;20301;-56
2022/03/16 08:12:27;;;;;;;10.33;7.67;;;8.70;1.00;;;;;;4975578;28;20345;-56
2022/03/16 08:14:54;;;;;;;10.10;6.67;;;8.70;1.00;;;;;;4974003;28;20213;-56
2022/03/16 08:17:20;;;;;;;9.33;7.43;;;8.80;1.00;;;;;;4973790;28;20245;-55
2022/03/16 08:19:48;;;;;;;10.17;7.60;;;8.90;1.00;;;;;;4971449;28;20605;-57
2022/03/16 08:22:41;;;;;;;10.70;7.83;;;9.10;99.90;;;;;;4975709;28;20201;-56
2022/03/16 08:25:11;;;;;;;9.67;8.13;;;9.10;1.00;;;;;;4977278;28;20209;-55
2022/03/16 08:27:39;;;;;;;10.67;7.43;;;9.20;1.00;;;;;;4974988;28;20230;-57
2022/03/16 08:30:08;;;;;;;10.17;7.47;;;9.20;1.00;;;;;;4973449;28;20214;-57
2022/03/16 08:32:36;;;;;;;8.50;7.67;;;9.20;99.90;;;;;;4973535;28;20259;-55
2022/03/16 08:35:06;;;;;;;16.97;6.93;;;9.20;1.00;;;;;;4974192;28;20206;-57
2022/03/16 08:37:33;;;;;;;10.07;7.43;;;9.50;1.00;;;;;;4974632;28;20708;-56
2022/03/16 08:40:00;;;;;;;10.87;7.97;;;9.70;1.00;;;;;;4975114;28;20317;-55
2022/03/16 08:42:27;;;;;;;13.30;7.70;;;9.90;1.00;;;;;;4971507;28;20204;-56
2022/03/16 08:44:55;;;;;;;11.67;7.73;;;10.20;1.00;;;;;;4973955;28;20670;-56
2022/03/16 08:47:21;;;;;;;9.93;7.00;;;10.40;99.90;;;;;;4974775;28;20292;-55
2022/03/16 08:49:53;;;;;;;10.70;7.40;;;10.80;1.00;;;;;;4971877;28;20279;-55
2022/03/16 08:52:20;;;;;;;11.50;7.70;;;11.10;1.00;;;;;;4977017;28;20328;-55
2022/03/16 08:54:46;;;;;;;12.70;8.00;;;11.30;99.90;;;;;;4974391;28;20725;-57
2022/03/16 08:57:14;;;;;;;10.70;7.60;;;11.20;99.90;;;;;;4972994;28;20575;-57
2022/03/16 08:59:41;;;;;;;10.83;8.33;;;11.60;99.90;;;;;;4972162;28;20217;-57
2022/03/16 09:02:09;;;;;;;9.97;8.10;;;11.60;1.00;;;;;;4972437;28;20645;-57
2022/03/16 09:04:36;;;;;;;9.40;7.50;;;11.50;99.90;;;;;;4971148;28;20685;-56
2022/03/16 09:07:04;;;;;;;9.93;7.33;;;11.60;1.00;;;;;;4981774;28;20235;-57
2022/03/16 09:09:37;;;;;;;9.57;7.83;;;11.90;1.00;;;;;;4973534;28;20216;-56
2022/03/16 09:12:05;;;;;;;10.17;7.13;;;11.90;1.00;;;;;;4975527;28;20205;-56
2022/03/16 09:14:31;;;;;;;9.37;7.63;;;12.10;1.00;;;;;;4971555;28;20867;-57
2022/03/16 09:16:59;;;;;;;10.27;7.73;;;11.90;99.90;;;;;;4971830;28;20198;-55
2022/03/16 09:19:26;;;;;;;9.77;7.67;;;11.40;1.00;;;;;;4972493;28;20225;-56
2022/03/16 09:21:53;;;;;;;10.70;8.50;;;12.00;1.00;;;;;;4973514;28;20236;-55
2022/03/16 09:24:20;;;;;;;10.40;7.43;;;11.70;30.00;;;;;;4972121;28;20236;-56
2022/03/16 09:26:46;;;;;;;10.23;7.70;;;11.40;99.90;;;;;;4969908;28;20372;-56
2022/03/16 09:29:15;;;;;;;11.07;8.93;;;11.30;1.00;;;;;;4976477;28;20686;-55
2022/03/16 09:31:44;;;;;;;11.10;9.00;;;12.00;1.00;;;;;;4972081;28;20256;-56
2022/03/16 09:34:11;;;;;;;10.90;8.00;;;12.40;1.00;;;;;;4973594;28;20540;-56
2022/03/16 09:36:39;;;;;;;10.33;7.83;;;12.70;1.00;;;;;;4975432;28;20637;-55
2022/03/16 09:39:10;;;;;;;12.07;8.70;;;12.70;1.00;;;;;;4973857;28;20293;-55
2022/03/16 09:41:36;;;;;;;10.43;8.07;;;12.70;1.00;;;;;;4973980;28;20202;-55
2022/03/16 09:44:05;;;;;;;9.97;7.90;;;12.80;1.00;;;;;;4980444;28;20600;-54
2022/03/16 09:46:34;;;;;;;12.47;8.50;;;12.30;1.00;;;;;;4973200;28;20293;-55
2022/03/16 09:49:01;;;;;;;11.07;8.53;;;12.60;1.00;;;;;;4975306;28;20257;-57
2022/03/16 09:51:34;;;;;;;10.03;8.00;;;12.90;1.00;;;;;;4971836;28;20335;-56
2022/03/16 09:54:05;;;;;;;10.53;7.97;;;13.20;99.90;;;;;;4977058;28;20225;-55
2022/03/16 09:56:36;;;;;;;12.13;9.07;;;13.20;99.90;;;;;;4977508;28;20210;-55
2022/03/16 09:59:03;;;;;;;11.00;8.80;;;12.40;99.90;;;;;;4977617;28;20707;-55
2022/03/16 10:01:30;;;;;;;12.03;8.10;;;12.70;1.00;;;;;;4975818;28;20198;-55
2022/03/16 10:04:00;;;;;;;12.23;9.23;;;12.70;1.00;;;;;;4976030;28;20201;-55
2022/03/16 10:06:26;;;;;;;10.37;8.57;;;12.90;1.00;;;;;;4976653;28;20304;-54
2022/03/16 10:14:24;;;;;;;11.70;8.87;;;13.30;99.90;;;;;;4978162;28;20225;-56
2022/03/16 10:19:54;;;;;;;10.90;8.57;;;13.30;1.00;;;;;;4977760;28;20260;-55
2022/03/16 10:22:26;;;;;;;11.83;9.33;;;13.40;1.00;;;;;;4978118;28;20308;-55
2022/03/16 10:25:04;;;;;;;13.10;9.03;;;12.80;99.90;;;;;;4976980;28;20218;-55
2022/03/16 10:27:36;;;;;;;11.97;8.73;;;13.10;1.00;;;;;;4978809;28;20292;-55
2022/03/16 10:30:06;;;;;;;12.23;9.00;;;13.30;1.00;;;;;;4980191;28;20206;-54
2022/03/16 10:32:40;;;;;;;11.80;8.97;;;13.90;41.50;;;;;;4977538;28;20210;-55
2022/03/16 10:35:07;;;;;;;10.77;8.37;;;14.00;1.00;;;;;;4975882;28;20243;-57
2022/03/16 10:37:36;;;;;;;10.20;7.67;;;13.80;1.00;;;;;;4977866;28;20273;-55
2022/03/16 10:40:16;;;;;;;11.43;8.70;;;13.60;1.00;;;;;;4977053;28;20305;-55
2022/03/16 10:48:22;;;;;;;11.70;8.70;;;13.60;76.20;;;;;;4976146;28;20299;-55
2022/03/16 10:50:55;;;;;;;12.73;8.73;;;13.70;1.00;;;;;;4978769;28;20246;-55
2022/03/16 10:53:28;;;;;;;11.27;9.23;;;13.50;99.90;;;;;;4978072;28;20293;-55
2022/03/16 10:56:01;;;;;;;11.23;8.83;;;13.40;99.90;;;;;;4978293;28;20301;-54
2022/03/16 10:58:29;;;;;;;12.87;9.03;;;13.40;1.00;;;;;;4977606;28;20210;-55
2022/03/16 11:00:57;;;;;;;12.17;8.83;;;13.40;1.00;;;;;;4975015;28;20741;-57
2022/03/16 11:03:26;;;;;;;12.43;8.50;;;13.50;1.00;;;;;;4975213;28;20209;-56
2022/03/16 11:05:56;;;;;;;10.53;8.60;;;13.70;99.90;;;;;;4977271;28;20235;-56
2022/03/16 11:08:25;;;;;;;10.77;9.00;;;13.60;1.00;;;;;;4978793;28;20556;-56
2022/03/16 11:10:52;;;;;;;10.97;8.77;;;13.90;99.90;;;;;;4975699;28;20401;-56
2022/03/16 11:13:30;;;;;;;9.87;8.03;;;13.90;66.90;;;;;;4977277;28;20661;-55
2022/03/16 11:16:00;;;;;;;10.57;8.97;;;14.00;99.90;;;;;;4978327;28;20293;-55
2022/03/16 11:18:27;;;;;;;13.67;10.27;;;14.00;99.90;;;;;;4975927;28;20612;-57
2022/03/16 11:20:58;;;;;;;12.47;9.80;;;13.70;1.00;;;;;;4978708;28;20214;-55
2022/03/16 11:26:29;;;;;;;13.63;9.87;;;14.00;99.90;;;;;;4973416;28;20238;-63
2022/03/16 11:29:05;;;;;;;12.50;10.00;;;14.00;1.00;;;;;;4982072;28;20297;-62
2022/03/16 11:31:34;;;;;;;12.57;9.50;;;13.60;1.00;;;;;;4976303;28;20680;-62
2022/03/16 11:34:10;;;;;;;13.80;9.70;;;13.90;1.00;;;;;;4973470;28;20267;-62
2022/03/16 11:36:40;;;;;;;12.77;9.23;;;13.90;99.90;;;;;;4971832;28;20284;-63
2022/03/16 11:39:17;;;;;;;13.50;8.73;;;13.70;1.00;;;;;;4976656;28;20690;-62
2022/03/16 11:41:52;;;;;;;11.67;8.43;;;13.70;1.00;;;;;;4972813;28;20333;-62
2022/03/16 11:44:25;;;;;;;10.77;8.37;;;13.80;1.00;;;;;;4974183;28;20289;-63
2022/03/16 11:46:54;;;;;;;11.17;8.53;;;13.80;1.00;;;;;;4972158;28;21109;-64
2022/03/16 11:49:29;;;;;;;12.67;9.30;;;13.80;1.00;;;;;;4975041;28;20237;-62
2022/03/16 11:52:02;;;;;;;10.93;8.83;;;13.80;1.00;;;;;;4972585;28;20281;-54
2022/03/16 11:54:48;;;;;;;14.33;9.33;;;14.00;10.80;;;;;;4974573;28;20293;-55
2022/03/16 11:57:35;;;;;;;12.10;9.07;;;14.00;1.00;;;;;;4976054;28;20804;-54
2022/03/16 12:00:22;;;;;;;11.13;8.67;;;14.20;1.00;;;;;;4975090;28;20693;-54
2022/03/16 12:02:59;;;;;;;11.33;8.67;;;14.10;1.00;;;;;;4974300;28;20676;-57
2022/03/16 12:05:30;;;;;;;11.73;9.63;;;14.00;1.00;;;;;;4975751;28;20522;-56
2022/03/16 12:08:15;;;;;;;11.47;9.20;;;13.80;99.90;;;;;;4975170;28;20214;-55
2022/03/16 12:12:50;;;;;;;12.57;9.53;;;13.90;99.90;;;;;;4974484;28;20616;-55
2022/03/16 12:13:45;;;;;;;14.00;10.03;;;13.70;99.90;;;;;;4969790;28;20234;-54
2022/03/16 12:16:18;;;;;;;13.20;9.20;;;13.90;99.90;;;;;;4970324;28;20293;-55
2022/03/16 12:18:47;;;;;;;12.00;8.90;;;14.10;99.90;;;;;;4972048;28;20601;-55
2022/03/16 12:21:14;;;;;;;12.33;8.30;;;14.30;1.00;;;;;;4974307;28;20239;-55
2022/03/16 12:23:47;;;;;;;10.13;8.23;;;14.30;1.00;;;;;;4976182;28;20217;-55
2022/03/16 12:26:18;;;;;;;10.87;8.67;;;14.20;1.00;;;;;;4973656;28;20457;-55
2022/03/16 12:28:59;;;;;;;9.67;7.80;;;14.10;1.00;;;;;;4976653;28;20815;-55
2022/03/16 12:31:26;;;;;;;10.00;8.43;;;14.00;99.90;;;;;;4974114;28;20213;-55
2022/03/16 12:33:55;;;;;;;10.90;7.93;;;14.20;42.90;;;;;;4975377;28;20666;-55
2022/03/16 12:36:33;;;;;;;14.10;8.47;;;14.10;83.60;;;;;;4976672;28;20604;-54
2022/03/16 12:39:05;;;;;;;13.07;8.13;;;14.00;1.00;;;;;;4975999;28;20732;-55
2022/03/16 12:44:18;;;;;;;10.20;8.20;;;14.10;99.90;;;;;;4975328;28;20194;-55
2022/03/16 12:47:03;;;;;;;8.93;7.77;;;14.10;1.00;;;;;;4978198;28;20253;-55
2022/03/16 12:49:31;;;;;;;11.30;7.90;;;14.20;99.90;;;;;;4974982;28;20226;-55
2022/03/16 12:52:01;;;;;;;10.00;7.67;;;14.20;1.00;;;;;;4974520;28;20643;-56
2022/03/16 12:54:31;;;;;;;12.20;7.93;;;14.00;99.90;;;;;;4976008;28;20242;-55
2022/03/16 12:57:06;;;;;;;13.23;8.83;;;14.00;1.00;;;;;;4977479;28;20747;-56
2022/03/16 13:00:04;;;;;;;9.07;7.33;;;13.90;1.00;;;;;;4977198;28;20229;-55
2022/03/16 13:02:34;;;;;;;9.80;7.33;;;13.70;1.00;;;;;;4976185;28;20228;-55
2022/03/16 13:05:01;;;;;;;11.00;7.73;;;13.80;1.00;;;;;;4975525;28;20207;-55
2022/03/16 13:07:28;;;;;;;11.30;8.07;;;13.70;1.00;;;;;;4977028;28;20316;-55